Time;durP1;ratioP1;P1;durP2;ratioP2;P2;SDS_P1;SDS_P2;PMS_P1;PMS_P2;Temp;Humidity;BMP_temperature;BMP_pressure;BME280_temperature;BME280_humidity;BME280_pressure;Samples;Min_cycle;Max_cycle;Signal;HPM_P1;HPM_P2
2023/05/08 00:01:36;;;;;;;0.10;0.10;;;15.00;99.90;;;;;;5053172;28;20056;-74
2023/05/08 00:04:02;;;;;;;0.13;0.10;;;15.00;99.90;;;;;;5053688;28;20480;-75
2023/05/08 00:06:27;;;;;;;1.13;0.20;;;15.00;99.90;;;;;;5053444;28;20029;-74
2023/05/08 00:08:54;;;;;;;0.45;0.20;;;15.00;99.90;;;;;;5052825;28;20413;-75
2023/05/08 00:11:20;;;;;;;0.80;0.40;;;15.00;99.90;;;;;;5053410;28;20108;-74
2023/05/08 00:13:46;;;;;;;0.28;0.20;;;15.00;99.90;;;;;;5053314;28;20114;-74
2023/05/08 00:16:12;;;;;;;0.20;0.08;;;15.00;99.90;;;;;;5053305;28;20021;-74
2023/05/08 00:18:38;;;;;;;0.30;0.20;;;15.00;99.90;;;;;;5053576;28;20392;-74
2023/05/08 00:21:05;;;;;;;0.28;0.10;;;15.00;99.90;;;;;;5035614;28;20493;-74
2023/05/08 00:23:31;;;;;;;0.40;0.20;;;15.00;99.90;;;;;;5053135;28;20035;-76
2023/05/08 00:25:57;;;;;;;0.10;0.10;;;15.00;99.90;;;;;;5053523;28;20049;-74
2023/05/08 00:28:23;;;;;;;1.05;0.30;;;15.00;99.90;;;;;;5053456;28;20429;-74
2023/05/08 00:30:49;;;;;;;0.68;0.30;;;15.00;99.90;;;;;;5018253;28;20123;-75
2023/05/08 00:33:15;;;;;;;0.60;0.30;;;15.00;99.90;;;;;;5035238;28;20117;-73
2023/05/08 00:35:41;;;;;;;1.08;0.47;;;15.00;99.90;;;;;;5034716;28;20124;-76
2023/05/08 00:38:08;;;;;;;1.02;0.10;;;15.00;99.90;;;;;;5053419;28;20033;-76
2023/05/08 00:40:34;;;;;;;0.35;0.20;;;15.00;99.90;;;;;;5052949;28;20052;-75
2023/05/08 00:42:59;;;;;;;1.13;0.30;;;15.00;99.90;;;;;;5053487;28;20037;-75
2023/05/08 00:45:35;;;;;;;0.80;0.50;;;15.00;99.90;;;;;;5053795;28;20366;-74
2023/05/08 00:48:02;;;;;;;1.08;0.22;;;14.90;99.90;;;;;;5053855;28;20056;-75
2023/05/08 00:50:29;;;;;;;0.30;0.20;;;14.90;99.90;;;;;;5053841;28;20052;-75
2023/05/08 00:52:57;;;;;;;0.85;0.30;;;14.90;99.90;;;;;;5052788;28;20035;-74
2023/05/08 00:55:23;;;;;;;1.10;0.30;;;14.90;99.90;;;;;;5053535;28;20025;-75
2023/05/08 00:57:49;;;;;;;7.15;4.57;;;14.90;99.90;;;;;;5052945;28;20462;-74
2023/05/08 01:00:17;;;;;;;3.78;1.40;;;14.90;99.90;;;;;;5053232;28;20078;-76
2023/05/08 01:02:43;;;;;;;2.70;1.20;;;14.90;99.90;;;;;;5052658;28;20036;-76
2023/05/08 01:05:10;;;;;;;2.17;0.50;;;14.80;99.90;;;;;;5035494;28;20032;-75
2023/05/08 01:07:37;;;;;;;1.13;0.30;;;14.80;99.90;;;;;;5052679;28;20025;-75
2023/05/08 01:10:04;;;;;;;1.00;0.30;;;14.80;99.90;;;;;;5053301;28;20055;-74
2023/05/08 01:13:13;;;;;;;0.50;0.40;;;14.90;99.90;;;;;;5034875;28;20370;-75
2023/05/08 01:16:10;;;;;;;2.33;0.50;;;14.80;99.90;;;;;;5029938;28;20079;-75
2023/05/08 01:18:43;;;;;;;2.08;0.40;;;14.80;99.90;;;;;;5052421;28;20125;-75
2023/05/08 01:21:17;;;;;;;;;;;14.80;99.90;;;;;;5053088;28;20021;-75
2023/05/08 01:24:34;;;;;;;1.17;0.50;;;14.80;99.90;;;;;;5052289;28;19904;-75
2023/05/08 01:27:22;;;;;;;0.52;0.40;;;14.80;99.90;;;;;;5052584;28;20082;-75
2023/05/08 01:30:29;;;;;;;0.57;0.20;;;14.80;99.90;;;;;;5051475;28;20328;-75
2023/05/08 01:32:57;;;;;;;1.13;0.70;;;14.90;99.90;;;;;;4951820;29;20027;-74
2023/05/08 01:35:44;;;;;;;0.73;0.40;;;14.80;99.90;;;;;;5037484;28;20036;-74
2023/05/08 01:38:29;;;;;;;0.68;0.50;;;14.90;99.90;;;;;;5052155;28;20025;-74
2023/05/08 01:41:15;;;;;;;1.27;0.32;;;14.90;99.90;;;;;;5033656;28;20029;-74
2023/05/08 01:43:52;;;;;;;0.45;0.40;;;14.90;99.90;;;;;;5051074;28;20415;-73
2023/05/08 01:46:23;;;;;;;2.13;0.40;;;14.80;99.90;;;;;;5051810;28;20393;-73
2023/05/08 01:48:55;;;;;;;0.75;0.47;;;14.90;99.90;;;;;;5051592;28;20095;-74
2023/05/08 01:51:26;;;;;;;0.98;0.60;;;14.90;99.90;;;;;;5051876;28;20036;-74
2023/05/08 01:53:57;;;;;;;0.63;0.40;;;14.90;99.90;;;;;;5051612;28;20071;-73
2023/05/08 01:56:24;;;;;;;0.22;0.22;;;14.90;99.90;;;;;;5051879;28;20401;-73
2023/05/08 01:58:53;;;;;;;0.90;0.47;;;14.90;99.90;;;;;;5051673;28;20037;-72
2023/05/08 02:01:22;;;;;;;1.00;0.47;;;14.90;99.90;;;;;;5052057;28;20056;-73
2023/05/08 02:03:48;;;;;;;0.30;0.30;;;14.90;99.90;;;;;;5051557;28;20060;-73
2023/05/08 02:06:18;;;;;;;0.93;0.22;;;14.90;99.90;;;;;;5051487;28;20128;-74
2023/05/08 02:08:45;;;;;;;2.85;0.40;;;14.90;99.90;;;;;;5050959;28;20025;-73
2023/05/08 02:11:13;;;;;;;0.43;0.35;;;15.00;99.90;;;;;;5033768;28;20135;-73
2023/05/08 02:13:40;;;;;;;2.38;0.50;;;15.00;99.90;;;;;;5051304;28;20025;-74
2023/05/08 02:16:10;;;;;;;0.45;0.25;;;15.00;99.90;;;;;;5033754;28;20316;-73
2023/05/08 02:18:38;;;;;;;1.05;0.40;;;15.00;99.90;;;;;;5051446;28;20506;-74
2023/05/08 02:21:06;;;;;;;0.43;0.40;;;15.00;99.90;;;;;;5051421;28;20029;-74
2023/05/08 02:23:33;;;;;;;0.70;0.50;;;15.00;99.90;;;;;;5051521;28;20132;-73
2023/05/08 02:26:02;;;;;;;1.20;0.40;;;15.00;99.90;;;;;;5051282;28;20032;-73
2023/05/08 02:28:29;;;;;;;1.75;0.45;;;15.00;99.90;;;;;;5051199;28;20029;-73
2023/05/08 02:30:59;;;;;;;1.95;0.50;;;15.00;99.90;;;;;;5050966;28;20103;-73
2023/05/08 02:33:28;;;;;;;0.77;0.38;;;15.10;99.90;;;;;;5033280;28;20163;-73
2023/05/08 02:35:56;;;;;;;0.55;0.30;;;15.00;99.90;;;;;;5051068;28;20029;-73
2023/05/08 02:38:25;;;;;;;0.60;0.40;;;15.10;99.90;;;;;;5050942;28;20132;-73
2023/05/08 02:40:56;;;;;;;0.55;0.55;;;15.10;99.90;;;;;;5050876;28;20442;-73
2023/05/08 02:43:22;;;;;;;0.52;0.35;;;15.10;99.90;;;;;;5050880;28;20528;-74
2023/05/08 02:45:51;;;;;;;0.38;0.38;;;15.10;99.90;;;;;;5050803;28;20108;-74
2023/05/08 02:48:45;;;;;;;0.55;0.38;;;15.00;99.90;;;;;;5051222;28;20068;-73
2023/05/08 02:51:40;;;;;;;0.73;0.43;;;15.10;99.90;;;;;;5041180;28;20048;-73
2023/05/08 02:54:13;;;;;;;0.75;0.38;;;15.00;99.90;;;;;;5051626;28;20031;-74
2023/05/08 02:57:29;;;;;;;1.38;0.57;;;15.10;99.90;;;;;;5055063;28;20112;-77
2023/05/08 03:00:32;;;;;;;0.40;0.28;;;15.00;99.90;;;;;;4954528;29;20027;-74
2023/05/08 03:03:10;;;;;;;0.65;0.50;;;15.00;99.90;;;;;;4953819;29;20118;-74
2023/05/08 03:05:38;;;;;;;0.28;0.20;;;15.00;99.90;;;;;;5043416;28;20040;-74
2023/05/08 03:08:13;;;;;;;0.00;0.00;;;14.90;99.90;;;;;;5054413;28;20100;-74
2023/05/08 03:10:42;;;;;;;0.28;0.28;;;14.90;99.90;;;;;;5036693;28;20040;-77
2023/05/08 03:13:10;;;;;;;1.75;0.30;;;14.90;99.90;;;;;;5054542;28;20029;-74
2023/05/08 03:15:45;;;;;;;0.95;0.47;;;14.80;99.90;;;;;;5054002;28;20040;-74
2023/05/08 03:18:16;;;;;;;0.20;0.20;;;14.80;99.90;;;;;;5054056;28;20029;-74
2023/05/08 03:20:48;;;;;;;1.77;0.40;;;14.80;99.90;;;;;;5053829;28;20033;-76
2023/05/08 03:23:18;;;;;;;0.87;0.30;;;14.80;99.90;;;;;;5054172;28;20025;-73
2023/05/08 03:25:45;;;;;;;0.30;0.15;;;14.80;99.90;;;;;;5035999;28;20036;-74
2023/05/08 03:28:13;;;;;;;1.20;0.40;;;14.70;99.90;;;;;;5054503;28;20045;-73
2023/05/08 03:30:41;;;;;;;0.63;0.20;;;14.80;99.90;;;;;;5053967;28;20118;-72
2023/05/08 03:33:08;;;;;;;0.22;0.22;;;14.70;99.90;;;;;;5053830;28;20108;-72
2023/05/08 03:35:38;;;;;;;0.20;0.20;;;14.70;99.90;;;;;;5053729;28;20033;-73
2023/05/08 03:38:05;;;;;;;0.30;0.30;;;14.70;99.90;;;;;;5053579;28;20021;-72
2023/05/08 03:40:37;;;;;;;0.95;0.50;;;14.70;99.90;;;;;;5053811;28;20040;-72
2023/05/08 03:43:06;;;;;;;0.50;0.50;;;14.70;99.90;;;;;;5053751;28;20036;-73
2023/05/08 03:45:35;;;;;;;1.75;0.40;;;14.60;99.90;;;;;;5054003;28;20049;-72
2023/05/08 03:48:03;;;;;;;0.75;0.57;;;14.70;99.90;;;;;;5035727;28;20071;-72
2023/05/08 03:50:29;;;;;;;1.58;0.45;;;14.70;99.90;;;;;;5054089;28;20043;-72
2023/05/08 03:52:57;;;;;;;1.63;0.65;;;14.70;99.90;;;;;;5053457;28;20029;-72
2023/05/08 03:55:23;;;;;;;0.80;0.70;;;14.70;99.90;;;;;;5053520;28;20043;-72
2023/05/08 03:58:00;;;;;;;0.93;0.80;;;14.60;99.90;;;;;;5053330;28;20021;-73
2023/05/08 04:00:50;;;;;;;0.70;0.68;;;14.70;99.90;;;;;;5053511;28;20061;-72
2023/05/08 04:03:23;;;;;;;1.17;0.63;;;14.70;99.90;;;;;;5053714;28;20109;-72
2023/05/08 04:06:08;;;;;;;1.08;0.70;;;14.70;99.90;;;;;;5052397;28;20064;-72
2023/05/08 04:08:42;;;;;;;0.93;0.73;;;14.70;99.90;;;;;;5053750;28;20025;-72
2023/05/08 04:11:16;;;;;;;1.10;0.73;;;14.70;99.90;;;;;;5052992;28;20497;-72
2023/05/08 04:13:53;;;;;;;0.70;0.70;;;14.70;99.90;;;;;;5035585;28;20025;-72
2023/05/08 04:16:27;;;;;;;2.38;0.93;;;14.60;99.90;;;;;;5053318;28;20131;-72
2023/05/08 04:19:02;;;;;;;0.82;0.70;;;14.70;99.90;;;;;;5052564;28;20509;-72
2023/05/08 04:21:30;;;;;;;3.10;0.80;;;14.70;99.90;;;;;;5053523;28;20116;-72
2023/05/08 04:23:57;;;;;;;2.58;0.60;;;14.70;99.90;;;;;;5052875;28;20021;-72
2023/05/08 04:26:24;;;;;;;2.60;0.75;;;14.70;99.90;;;;;;5053497;28;20392;-72
2023/05/08 04:28:50;;;;;;;1.23;0.82;;;14.70;99.90;;;;;;5052552;28;20118;-73
2023/05/08 04:31:16;;;;;;;1.55;0.60;;;14.70;99.90;;;;;;5053419;28;20036;-72
2023/05/08 04:33:44;;;;;;;2.30;0.70;;;14.70;99.90;;;;;;5053090;28;20040;-72
2023/05/08 04:36:13;;;;;;;1.20;0.50;;;14.70;99.90;;;;;;5053021;28;20358;-72
2023/05/08 04:38:39;;;;;;;1.15;0.45;;;14.60;99.90;;;;;;5053087;28;20445;-72
2023/05/08 04:41:06;;;;;;;1.05;0.60;;;14.70;99.90;;;;;;5052558;28;20029;-72
2023/05/08 04:43:33;;;;;;;0.32;0.30;;;14.70;99.90;;;;;;5052861;28;20029;-72
2023/05/08 04:45:58;;;;;;;0.57;0.30;;;14.70;99.90;;;;;;5052410;28;20033;-73
2023/05/08 04:48:24;;;;;;;0.40;0.40;;;14.70;99.90;;;;;;5053613;28;20043;-72
2023/05/08 04:50:50;;;;;;;1.85;0.52;;;14.70;99.90;;;;;;5051779;28;20025;-73
2023/05/08 04:53:16;;;;;;;1.38;0.60;;;14.70;99.90;;;;;;5052659;28;20029;-73
2023/05/08 04:55:41;;;;;;;2.67;0.60;;;14.80;99.90;;;;;;5052647;28;20036;-72
2023/05/08 04:58:09;;;;;;;1.05;0.50;;;14.80;99.90;;;;;;5051934;28;20149;-72
2023/05/08 05:00:35;;;;;;;0.70;0.40;;;14.80;99.90;;;;;;5052310;28;20033;-72
2023/05/08 05:03:01;;;;;;;1.55;0.50;;;14.80;99.90;;;;;;5052109;28;20044;-72
2023/05/08 05:05:27;;;;;;;0.73;0.70;;;14.80;99.90;;;;;;5053010;28;20141;-72
2023/05/08 05:07:52;;;;;;;1.73;0.50;;;14.80;99.90;;;;;;5051999;28;20032;-72
2023/05/08 05:10:18;;;;;;;0.63;0.40;;;14.80;99.90;;;;;;5052616;28;20052;-72
2023/05/08 05:12:44;;;;;;;0.43;0.32;;;14.80;99.90;;;;;;5034485;28;20025;-72
2023/05/08 05:15:10;;;;;;;0.63;0.32;;;14.80;99.90;;;;;;5051707;28;20029;-72
2023/05/08 05:17:36;;;;;;;0.60;0.40;;;14.80;99.90;;;;;;5051486;28;20363;-72
2023/05/08 05:20:01;;;;;;;0.60;0.52;;;14.80;99.90;;;;;;5051490;28;20029;-72
2023/05/08 05:22:27;;;;;;;2.88;0.75;;;14.80;99.90;;;;;;5052618;28;20083;-72
2023/05/08 05:24:53;;;;;;;1.00;0.40;;;14.80;99.90;;;;;;5051339;28;20052;-72
2023/05/08 05:27:19;;;;;;;0.60;0.40;;;14.70;99.90;;;;;;5052177;28;20025;-72
2023/05/08 05:29:45;;;;;;;1.80;0.28;;;14.80;99.90;;;;;;5051354;28;20075;-72
2023/05/08 05:32:11;;;;;;;0.63;0.32;;;14.80;99.90;;;;;;5051631;28;20032;-72
2023/05/08 05:34:36;;;;;;;0.25;0.20;;;14.80;99.90;;;;;;5051841;28;20029;-72
2023/05/08 05:37:02;;;;;;;0.68;0.40;;;14.80;99.90;;;;;;5051667;28;20033;-72
2023/05/08 05:39:28;;;;;;;0.70;0.40;;;14.80;99.90;;;;;;5051961;28;20025;-72
2023/05/08 05:41:54;;;;;;;0.63;0.43;;;14.80;99.90;;;;;;5052829;28;20041;-72
2023/05/08 05:44:19;;;;;;;0.20;0.20;;;14.80;99.90;;;;;;5051666;28;20031;-72
2023/05/08 05:46:45;;;;;;;1.27;0.40;;;14.80;99.90;;;;;;5052190;28;20123;-72
2023/05/08 05:49:11;;;;;;;2.10;0.57;;;14.80;99.90;;;;;;5051851;28;20029;-73
2023/05/08 05:51:37;;;;;;;0.50;0.50;;;14.90;99.90;;;;;;5051552;28;20040;-73
2023/05/08 05:54:02;;;;;;;0.60;0.60;;;14.80;99.90;;;;;;5051373;28;20029;-72
2023/05/08 05:56:28;;;;;;;0.75;0.45;;;14.90;99.90;;;;;;5051369;28;20056;-73
2023/05/08 05:58:54;;;;;;;0.30;0.30;;;14.90;99.90;;;;;;5051067;28;20382;-73
2023/05/08 06:01:20;;;;;;;0.43;0.40;;;15.00;99.90;;;;;;5051748;28;20300;-72
2023/05/08 06:03:46;;;;;;;1.05;0.40;;;15.00;99.90;;;;;;5052265;28;20021;-72
2023/05/08 06:06:12;;;;;;;0.40;0.35;;;15.00;99.90;;;;;;5051541;28;20028;-72
2023/05/08 06:08:37;;;;;;;1.00;0.60;;;15.10;99.90;;;;;;5051894;28;20067;-72
2023/05/08 06:11:03;;;;;;;3.28;0.50;;;15.10;99.90;;;;;;5033597;28;20028;-72
2023/05/08 06:13:30;;;;;;;1.10;0.68;;;15.10;99.90;;;;;;5017946;28;20036;-73
2023/05/08 06:15:56;;;;;;;0.65;0.50;;;15.10;99.90;;;;;;5051809;28;20024;-74
2023/05/08 06:18:22;;;;;;;1.08;0.40;;;15.20;99.90;;;;;;5053045;28;20475;-73
2023/05/08 06:20:47;;;;;;;0.75;0.43;;;15.20;99.90;;;;;;5052647;28;20037;-72
2023/05/08 06:23:13;;;;;;;0.68;0.50;;;15.20;99.90;;;;;;5052298;28;20096;-72
2023/05/08 06:25:39;;;;;;;1.92;0.28;;;15.20;99.90;;;;;;5052914;28;20029;-72
2023/05/08 06:28:06;;;;;;;1.95;0.40;;;15.20;99.90;;;;;;5034119;28;20036;-72
2023/05/08 06:30:33;;;;;;;2.20;0.43;;;15.20;99.90;;;;;;5034149;28;20481;-72
2023/05/08 06:32:59;;;;;;;0.90;0.65;;;15.30;99.90;;;;;;5051998;28;20032;-73
2023/05/08 06:35:25;;;;;;;0.75;0.43;;;15.20;99.90;;;;;;5051621;28;20029;-73
2023/05/08 06:37:50;;;;;;;2.47;0.45;;;15.30;99.90;;;;;;5051669;28;20033;-72
2023/05/08 06:40:16;;;;;;;1.17;0.47;;;15.30;99.90;;;;;;5033067;28;20408;-72
2023/05/08 06:42:42;;;;;;;0.85;0.60;;;15.30;99.90;;;;;;5050984;28;20035;-72
2023/05/08 06:45:08;;;;;;;0.43;0.40;;;15.30;99.90;;;;;;5050560;28;20044;-72
2023/05/08 06:47:34;;;;;;;0.57;0.40;;;15.30;99.90;;;;;;5032986;28;20067;-72
2023/05/08 06:50:00;;;;;;;0.82;0.52;;;15.30;99.90;;;;;;5050720;28;20130;-72
2023/05/08 06:52:26;;;;;;;0.88;0.55;;;15.40;99.90;;;;;;5051449;28;20036;-72
2023/05/08 06:54:51;;;;;;;1.98;0.40;;;15.40;99.90;;;;;;5051388;28;20022;-73
2023/05/08 06:57:17;;;;;;;3.13;0.60;;;15.40;99.90;;;;;;5051582;28;20025;-72
2023/05/08 06:59:43;;;;;;;0.95;0.45;;;15.40;99.90;;;;;;5051719;28;20033;-72
2023/05/08 07:02:09;;;;;;;2.10;0.60;;;15.50;99.90;;;;;;5051208;28;20525;-72
2023/05/08 07:04:35;;;;;;;0.30;0.30;;;15.50;99.90;;;;;;5033705;28;20128;-72
2023/05/08 07:07:01;;;;;;;1.65;0.50;;;15.50;99.90;;;;;;5051486;28;20493;-73
2023/05/08 07:09:27;;;;;;;1.52;0.60;;;15.60;99.90;;;;;;5052057;28;20055;-72
2023/05/08 07:11:53;;;;;;;1.38;0.47;;;15.60;99.90;;;;;;5051801;28;20029;-72
2023/05/08 07:14:19;;;;;;;1.52;0.50;;;15.60;99.90;;;;;;5051363;28;20031;-72
2023/05/08 07:16:44;;;;;;;1.67;0.50;;;15.70;99.90;;;;;;5051604;28;20104;-72
2023/05/08 07:19:10;;;;;;;2.28;0.60;;;15.70;99.90;;;;;;5051015;28;20043;-72
2023/05/08 07:21:37;;;;;;;1.83;0.57;;;15.80;99.90;;;;;;5051655;28;20040;-73
2023/05/08 07:24:03;;;;;;;0.60;0.45;;;15.90;99.90;;;;;;5050826;28;20026;-73
2023/05/08 07:26:29;;;;;;;1.13;0.60;;;15.90;99.90;;;;;;5033431;28;20154;-73
2023/05/08 07:28:55;;;;;;;0.93;0.40;;;16.00;99.90;;;;;;5050721;28;20132;-72
2023/05/08 07:31:21;;;;;;;0.50;0.40;;;16.20;99.90;;;;;;5051524;28;20541;-72
2023/05/08 07:33:47;;;;;;;1.92;0.50;;;16.20;99.90;;;;;;5051238;28;20033;-73
2023/05/08 07:36:12;;;;;;;1.58;0.30;;;16.30;99.90;;;;;;5033153;28;20043;-72
2023/05/08 07:38:38;;;;;;;1.02;0.40;;;16.40;99.90;;;;;;5017423;28;20422;-72
2023/05/08 07:41:04;;;;;;;0.57;0.25;;;16.50;99.90;;;;;;5033834;28;20128;-72
2023/05/08 07:43:30;;;;;;;0.73;0.30;;;16.60;99.90;;;;;;5055477;28;20028;-71
2023/05/08 07:45:57;;;;;;;0.70;0.50;;;16.70;99.90;;;;;;5055150;28;20025;-73
2023/05/08 07:48:22;;;;;;;2.75;0.47;;;16.90;99.90;;;;;;5054797;28;20561;-72
2023/05/08 07:50:49;;;;;;;1.35;0.43;;;16.90;99.90;;;;;;5054484;28;20127;-73
2023/05/08 07:53:15;;;;;;;0.65;0.43;;;17.10;99.90;;;;;;5054245;28;20115;-73
2023/05/08 07:55:41;;;;;;;3.05;0.40;;;17.20;99.90;;;;;;5054752;28;20472;-73
2023/05/08 07:58:06;;;;;;;0.90;0.32;;;17.30;99.90;;;;;;5054429;28;20033;-73
2023/05/08 08:00:32;;;;;;;1.40;0.50;;;17.30;99.90;;;;;;5036557;28;20401;-72
2023/05/08 08:02:58;;;;;;;1.20;0.77;;;17.30;99.90;;;;;;5054229;28;20075;-72
2023/05/08 08:05:24;;;;;;;1.45;0.30;;;17.30;99.90;;;;;;5053787;28;20048;-73
2023/05/08 08:07:50;;;;;;;2.25;0.30;;;17.40;99.90;;;;;;5054418;28;20434;-72
2023/05/08 08:10:16;;;;;;;1.38;0.40;;;17.20;99.90;;;;;;5054429;28;20032;-73
2023/05/08 08:12:41;;;;;;;0.65;0.32;;;17.20;99.90;;;;;;5055022;28;20025;-73
2023/05/08 08:15:08;;;;;;;0.40;0.40;;;17.20;99.90;;;;;;5054209;28;20458;-74
2023/05/08 08:17:34;;;;;;;0.50;0.50;;;17.20;99.90;;;;;;5054387;28;20060;-73
2023/05/08 08:19:59;;;;;;;0.63;0.40;;;17.40;99.90;;;;;;5054396;28;20478;-75
2023/05/08 08:22:25;;;;;;;0.30;0.28;;;17.40;99.90;;;;;;5054343;28;20028;-73
2023/05/08 08:24:53;;;;;;;0.20;0.20;;;17.60;99.90;;;;;;5054341;28;20537;-73
2023/05/08 08:27:19;;;;;;;1.65;0.40;;;17.80;99.90;;;;;;5054282;28;20033;-73
2023/05/08 08:29:45;;;;;;;1.75;0.47;;;18.00;99.90;;;;;;5054048;28;20049;-73
2023/05/08 08:32:11;;;;;;;1.15;0.38;;;17.90;99.90;;;;;;5035673;28;20393;-74
2023/05/08 08:34:36;;;;;;;2.35;0.73;;;18.00;99.90;;;;;;5036254;28;20033;-74
2023/05/08 08:37:05;;;;;;;0.88;0.40;;;18.30;99.90;;;;;;5053619;28;20037;-76
2023/05/08 08:39:34;;;;;;;1.02;0.50;;;18.40;99.90;;;;;;5053999;28;20128;-74
2023/05/08 08:42:00;;;;;;;0.70;0.60;;;18.50;99.90;;;;;;5054074;28;20482;-75
2023/05/08 08:44:26;;;;;;;0.65;0.50;;;18.50;99.90;;;;;;5054028;28;20442;-74
2023/05/08 08:46:52;;;;;;;0.30;0.30;;;18.30;99.90;;;;;;5054305;28;20031;-74
2023/05/08 08:49:28;;;;;;;0.30;0.25;;;18.30;99.90;;;;;;5053093;28;20024;-73
2023/05/08 08:52:17;;;;;;;1.67;0.35;;;18.00;99.90;;;;;;5053147;28;20143;-74
2023/05/08 08:54:45;;;;;;;0.55;0.43;;;18.10;99.90;;;;;;5035409;28;20438;-72
2023/05/08 08:57:12;;;;;;;0.52;0.30;;;18.10;99.90;;;;;;5052973;28;20446;-72
2023/05/08 08:59:39;;;;;;;1.60;0.47;;;18.00;99.90;;;;;;5053345;28;20048;-72
2023/05/08 09:02:16;;;;;;;0.52;0.52;;;18.00;99.90;;;;;;5053130;28;20048;-73
2023/05/08 09:04:42;;;;;;;0.38;0.30;;;17.90;99.90;;;;;;5054325;28;20021;-74
2023/05/08 09:07:10;;;;;;;1.95;0.45;;;17.70;99.90;;;;;;5019151;28;20040;-73
2023/05/08 09:09:43;;;;;;;2.03;0.60;;;17.60;99.90;;;;;;5053528;28;20025;-73
2023/05/08 09:12:09;;;;;;;0.40;0.40;;;17.40;99.90;;;;;;5053091;28;20025;-73
2023/05/08 09:14:35;;;;;;;0.60;0.55;;;17.30;99.90;;;;;;5053150;28;20036;-73
2023/05/08 09:17:01;;;;;;;0.60;0.60;;;17.20;99.90;;;;;;5054090;28;20033;-76
2023/05/08 09:19:27;;;;;;;1.75;0.90;;;17.20;99.90;;;;;;5053559;28;20036;-73
2023/05/08 09:21:53;;;;;;;0.98;0.70;;;17.10;99.90;;;;;;5052042;28;20433;-75
2023/05/08 09:24:19;;;;;;;0.73;0.73;;;17.10;99.90;;;;;;5050918;28;20029;-73
2023/05/08 09:26:45;;;;;;;0.63;0.63;;;17.10;99.90;;;;;;5051349;28;20485;-73
2023/05/08 09:29:21;;;;;;;1.17;0.63;;;17.00;99.90;;;;;;5050529;28;20356;-74
2023/05/08 09:31:49;;;;;;;0.52;0.52;;;16.90;99.90;;;;;;5051310;28;20565;-74
2023/05/08 09:34:29;;;;;;;2.38;1.80;;;16.80;99.90;;;;;;5050366;28;20033;-74
2023/05/08 09:37:15;;;;;;;2.63;0.70;;;16.70;99.90;;;;;;5051310;28;20040;-74
2023/05/08 09:39:42;;;;;;;2.13;0.80;;;16.70;99.90;;;;;;5032227;28;20136;-74
2023/05/08 09:42:08;;;;;;;1.40;0.82;;;16.70;99.90;;;;;;5050575;28;20025;-74
2023/05/08 09:44:51;;;;;;;0.63;0.50;;;16.70;99.90;;;;;;5050757;28;20112;-74
2023/05/08 09:47:20;;;;;;;2.45;0.77;;;16.80;99.90;;;;;;5051259;28;20032;-74
2023/05/08 09:49:58;;;;;;;0.82;0.70;;;16.90;99.90;;;;;;5050968;28;20063;-73
2023/05/08 09:52:25;;;;;;;0.90;0.50;;;17.00;99.90;;;;;;5050572;28;20035;-73
2023/05/08 09:54:58;;;;;;;1.95;0.77;;;17.10;99.90;;;;;;5051061;28;20048;-73
2023/05/08 09:57:29;;;;;;;3.50;0.80;;;17.20;99.90;;;;;;5050923;28;20032;-73
2023/05/08 10:00:08;;;;;;;2.22;1.02;;;17.30;99.90;;;;;;5033098;28;20517;-74
2023/05/08 10:02:36;;;;;;;1.25;0.70;;;17.30;99.90;;;;;;5051210;28;20029;-74
2023/05/08 10:05:04;;;;;;;2.17;0.77;;;17.30;99.90;;;;;;5050222;28;20122;-76
2023/05/08 10:07:32;;;;;;;2.17;1.13;;;17.40;99.90;;;;;;5050803;28;20036;-74
2023/05/08 10:10:00;;;;;;;2.60;1.27;;;17.60;99.90;;;;;;5051076;28;20052;-75
2023/05/08 10:12:27;;;;;;;2.05;1.10;;;17.70;99.90;;;;;;5050355;28;20021;-74
2023/05/08 10:14:53;;;;;;;1.40;1.25;;;17.90;99.90;;;;;;5050484;28;20041;-74
2023/05/08 10:17:34;;;;;;;3.97;2.22;;;18.20;99.90;;;;;;5050187;28;20067;-74
2023/05/08 10:20:06;;;;;;;1.83;0.90;;;18.50;99.90;;;;;;5050756;28;20035;-74
2023/05/08 10:22:37;;;;;;;5.00;1.20;;;18.50;99.90;;;;;;5032838;28;20460;-74
2023/05/08 10:25:06;;;;;;;1.15;0.82;;;18.50;99.90;;;;;;5050639;28;20033;-75
2023/05/08 10:27:46;;;;;;;1.27;1.00;;;18.60;99.90;;;;;;5050804;28;20025;-75
2023/05/08 10:30:16;;;;;;;1.77;1.40;;;18.50;99.90;;;;;;5050263;28;20150;-74
2023/05/08 10:32:48;;;;;;;3.40;1.10;;;18.50;99.90;;;;;;5032517;28;20451;-73
2023/05/08 10:35:14;;;;;;;2.55;0.90;;;18.60;99.90;;;;;;5050623;28;20021;-73
2023/05/08 10:37:41;;;;;;;1.30;0.90;;;18.50;99.90;;;;;;5050625;28;20032;-73
2023/05/08 10:40:08;;;;;;;1.60;0.73;;;18.60;99.90;;;;;;5050058;28;20033;-76
2023/05/08 10:42:35;;;;;;;2.22;0.82;;;18.60;99.90;;;;;;5050615;28;20029;-74
2023/05/08 10:45:03;;;;;;;3.10;0.70;;;18.60;99.90;;;;;;5050382;28;20029;-73
2023/05/08 10:47:53;;;;;;;2.75;0.90;;;18.50;99.90;;;;;;5050070;28;20032;-73
2023/05/08 10:50:36;;;;;;;2.08;0.90;;;18.50;99.90;;;;;;5049738;28;20135;-73
2023/05/08 10:53:14;;;;;;;1.35;0.90;;;18.50;99.90;;;;;;5049994;28;20415;-73
2023/05/08 10:55:43;;;;;;;1.90;0.85;;;18.60;99.90;;;;;;5050134;28;20033;-73
2023/05/08 10:58:09;;;;;;;4.18;1.00;;;18.60;99.90;;;;;;5049226;28;20028;-73
2023/05/08 11:00:58;;;;;;;3.53;1.45;;;18.60;99.90;;;;;;5050127;28;20025;-73
2023/05/08 11:03:27;;;;;;;2.40;0.82;;;18.60;99.90;;;;;;5049834;28;20029;-72
2023/05/08 11:05:55;;;;;;;2.00;1.00;;;18.70;99.90;;;;;;5049854;28;20017;-72
2023/05/08 11:08:23;;;;;;;2.20;0.90;;;18.70;99.90;;;;;;5049728;28;20094;-72
2023/05/08 11:10:58;;;;;;;5.03;1.20;;;19.00;99.90;;;;;;5050009;28;20029;-72
2023/05/08 11:13:57;;;;;;;3.40;1.00;;;19.20;99.90;;;;;;5049449;28;20459;-72
2023/05/08 11:16:53;;;;;;;4.93;1.10;;;19.30;99.90;;;;;;5034688;28;20102;-72
2023/05/08 11:19:21;;;;;;;3.58;1.02;;;19.30;99.90;;;;;;5053629;28;20091;-72
2023/05/08 11:22:12;;;;;;;2.88;1.20;;;19.30;99.90;;;;;;5053852;28;20450;-72
2023/05/08 11:24:39;;;;;;;3.97;1.27;;;19.20;99.90;;;;;;5053642;28;20036;-72
2023/05/08 11:27:05;;;;;;;2.67;1.20;;;19.20;99.90;;;;;;5053579;28;20103;-72
2023/05/08 11:29:31;;;;;;;4.07;1.20;;;19.30;99.90;;;;;;5052793;28;20065;-72
2023/05/08 11:31:57;;;;;;;2.15;1.10;;;19.40;99.90;;;;;;5053620;28;20021;-72
2023/05/08 11:34:41;;;;;;;4.65;1.45;;;19.40;99.90;;;;;;5053313;28;20051;-72
2023/05/08 11:37:24;;;;;;;4.60;1.10;;;19.60;99.90;;;;;;5053343;28;20489;-73
2023/05/08 11:39:50;;;;;;;2.25;1.10;;;19.80;99.90;;;;;;5053633;28;20033;-73
2023/05/08 11:42:25;;;;;;;3.75;1.35;;;19.80;99.90;;;;;;5053201;28;20102;-73
2023/05/08 11:45:04;;;;;;;3.03;1.10;;;19.80;99.90;;;;;;5053732;28;20040;-72
2023/05/08 11:47:41;;;;;;;2.15;1.25;;;20.00;99.90;;;;;;5054029;28;20536;-73
2023/05/08 11:50:11;;;;;;;3.78;1.23;;;20.10;99.90;;;;;;5053987;28;20354;-72
2023/05/08 11:52:39;;;;;;;2.95;1.13;;;20.10;99.90;;;;;;5053697;28;20017;-73
2023/05/08 11:55:11;;;;;;;5.93;1.15;;;20.20;99.90;;;;;;5053663;28;20025;-73
2023/05/08 11:57:37;;;;;;;2.10;1.20;;;20.30;99.90;;;;;;5053775;28;20021;-72
2023/05/08 12:00:11;;;;;;;2.25;1.02;;;20.40;99.90;;;;;;5054176;28;20087;-73
2023/05/08 12:02:38;;;;;;;3.85;1.40;;;20.30;99.90;;;;;;5052986;28;20071;-73
2023/05/08 12:05:05;;;;;;;6.15;1.58;;;20.40;99.90;;;;;;5053450;28;20132;-73
2023/05/08 12:07:31;;;;;;;4.57;1.00;;;20.60;99.90;;;;;;5053016;28;20040;-72
2023/05/08 12:09:56;;;;;;;3.33;1.00;;;20.60;99.90;;;;;;5053100;28;20063;-72
2023/05/08 12:12:22;;;;;;;1.60;0.65;;;20.80;99.90;;;;;;5053017;28;20029;-72
2023/05/08 12:14:51;;;;;;;4.15;1.23;;;20.80;99.90;;;;;;5053484;28;20458;-72
2023/05/08 12:17:19;;;;;;;4.60;1.13;;;20.90;99.90;;;;;;5053351;28;20182;-73
2023/05/08 12:19:45;;;;;;;3.13;1.10;;;20.90;99.90;;;;;;5053858;28;20485;-73
2023/05/08 12:22:11;;;;;;;1.90;0.82;;;20.90;99.90;;;;;;5053971;28;20033;-75
2023/05/08 12:24:38;;;;;;;2.25;0.85;;;21.10;99.90;;;;;;5053642;28;20075;-73
2023/05/08 12:27:04;;;;;;;3.97;1.00;;;21.20;99.90;;;;;;5035378;28;20052;-73
2023/05/08 12:29:34;;;;;;;3.58;1.15;;;21.30;99.90;;;;;;5053174;28;20171;-73
2023/05/08 12:31:59;;;;;;;2.08;1.17;;;21.30;99.90;;;;;;5053800;28;20094;-73
2023/05/08 12:34:25;;;;;;;1.40;1.10;;;21.40;99.90;;;;;;5053379;28;20438;-72
2023/05/08 12:37:01;;;;;;;2.83;0.88;;;21.50;99.90;;;;;;5053366;28;20079;-73
2023/05/08 12:39:27;;;;;;;2.70;0.85;;;21.40;99.90;;;;;;5053210;28;20029;-73
2023/05/08 12:41:53;;;;;;;2.20;0.93;;;21.40;99.90;;;;;;5035867;28;20103;-73
2023/05/08 12:44:20;;;;;;;2.80;0.98;;;21.50;99.90;;;;;;5035548;28;20465;-74
2023/05/08 12:46:50;;;;;;;3.55;1.00;;;21.50;99.90;;;;;;5053456;28;20056;-73
2023/05/08 12:49:42;;;;;;;2.60;1.00;;;21.40;99.90;;;;;;5052871;28;20037;-74
2023/05/08 12:52:12;;;;;;;3.15;1.00;;;21.50;99.90;;;;;;5048427;28;20037;-74
2023/05/08 12:54:42;;;;;;;2.90;1.00;;;21.50;99.90;;;;;;5052796;28;20025;-74
2023/05/08 12:57:10;;;;;;;3.80;1.00;;;21.40;99.90;;;;;;5053241;28;20045;-74
2023/05/08 12:59:36;;;;;;;5.28;1.20;;;21.50;99.90;;;;;;5053077;28;20065;-74
2023/05/08 13:02:02;;;;;;;4.00;1.20;;;21.50;99.90;;;;;;5053474;28;20490;-73